Time;durP1;ratioP1;P1;durP2;ratioP2;P2;SDS_P1;SDS_P2;PMS_P1;PMS_P2;Temp;Humidity;BMP_temperature;BMP_pressure;BME280_temperature;BME280_humidity;BME280_pressure;Samples;Min_cycle;Max_cycle;Signal;HPM_P1;HPM_P2
2023/04/06 00:01:34;;;;;;;8.90;7.37;;;8.80;44.50;;;;;;5043291;28;20202;-52
2023/04/06 00:03:59;;;;;;;10.23;7.30;;;8.80;44.70;;;;;;5038295;28;20715;-54
2023/04/06 00:06:26;;;;;;;8.07;7.20;;;8.70;45.00;;;;;;5044004;28;20451;-51
2023/04/06 00:08:52;;;;;;;7.77;6.97;;;8.60;45.10;;;;;;5041445;28;20232;-49
2023/04/06 00:11:18;;;;;;;9.87;6.23;;;8.50;45.20;;;;;;5044968;28;20435;-50
2023/04/06 00:13:43;;;;;;;7.97;6.90;;;8.60;45.30;;;;;;5044671;28;20337;-54
2023/04/06 00:16:09;;;;;;;7.77;6.23;;;8.60;45.20;;;;;;5034214;28;20189;-54
2023/04/06 00:18:34;;;;;;;12.73;7.23;;;8.50;45.70;;;;;;5042438;28;20212;-50
2023/04/06 00:21:00;;;;;;;9.43;7.37;;;8.40;46.30;;;;;;5040320;28;20185;-51
2023/04/06 00:23:26;;;;;;;7.60;6.80;;;8.40;45.70;;;;;;5035212;28;20185;-48
2023/04/06 00:25:51;;;;;;;8.43;7.17;;;8.40;45.70;;;;;;5035828;28;20196;-49
2023/04/06 00:28:17;;;;;;;9.27;6.77;;;8.30;45.80;;;;;;5036657;28;20238;-48
2023/04/06 00:30:43;;;;;;;10.60;7.30;;;8.20;46.00;;;;;;5032908;28;20417;-48
2023/04/06 00:33:08;;;;;;;10.87;8.07;;;8.20;46.20;;;;;;5033483;28;20275;-49
2023/04/06 00:35:34;;;;;;;8.20;6.90;;;8.20;46.30;;;;;;5038212;28;20195;-49
2023/04/06 00:38:00;;;;;;;8.63;6.67;;;8.20;46.10;;;;;;5034595;28;20212;-50
2023/04/06 00:40:28;;;;;;;7.23;6.07;;;8.20;46.30;;;;;;5030105;28;20259;-49
2023/04/06 00:42:54;;;;;;;8.20;6.43;;;8.10;46.10;;;;;;5030910;28;20447;-48
2023/04/06 00:45:20;;;;;;;6.70;6.00;;;8.10;46.10;;;;;;5036574;28;20441;-48
2023/04/06 00:47:45;;;;;;;8.73;6.93;;;7.90;46.60;;;;;;5035134;28;20443;-50
2023/04/06 00:50:11;;;;;;;7.00;6.00;;;7.60;47.00;;;;;;5034939;28;20216;-50
2023/04/06 00:52:37;;;;;;;10.03;6.80;;;7.40;47.90;;;;;;5034590;28;20276;-49
2023/04/06 00:55:03;;;;;;;8.30;5.70;;;7.30;48.40;;;;;;5043640;28;20590;-50
2023/04/06 00:57:29;;;;;;;8.13;6.20;;;7.30;48.50;;;;;;5036442;28;20466;-51
2023/04/06 00:59:55;;;;;;;9.97;6.10;;;7.00;48.90;;;;;;5036496;28;20518;-49
2023/04/06 01:02:21;;;;;;;10.87;6.67;;;6.80;49.50;;;;;;5034460;28;20572;-49
2023/04/06 01:04:47;;;;;;;8.70;7.07;;;7.00;49.70;;;;;;5048144;28;20447;-48
2023/04/06 01:07:12;;;;;;;8.23;6.57;;;7.10;49.40;;;;;;5038958;28;20201;-48
2023/04/06 01:09:40;;;;;;;7.03;6.30;;;7.10;49.20;;;;;;5039825;28;20633;-49
2023/04/06 01:12:06;;;;;;;6.90;6.30;;;7.10;49.20;;;;;;5041972;28;20215;-49
2023/04/06 01:14:32;;;;;;;9.17;6.30;;;7.20;48.90;;;;;;5047546;28;20870;-50
2023/04/06 01:17:00;;;;;;;8.93;6.47;;;7.30;48.70;;;;;;5048104;28;20234;-48
2023/04/06 01:19:26;;;;;;;7.70;6.20;;;7.20;48.60;;;;;;5045883;28;20232;-49
2023/04/06 01:21:53;;;;;;;7.30;6.33;;;7.10;48.70;;;;;;5039833;28;20530;-48
2023/04/06 01:24:19;;;;;;;7.83;6.97;;;7.10;48.80;;;;;;5045209;28;20934;-49
2023/04/06 01:26:44;;;;;;;7.50;6.50;;;7.00;48.90;;;;;;5040730;28;20439;-50
2023/04/06 01:29:10;;;;;;;8.97;6.60;;;6.90;49.20;;;;;;5042726;28;20458;-51
2023/04/06 01:31:36;;;;;;;7.87;7.10;;;6.80;49.70;;;;;;5046212;28;21975;-50
2023/04/06 01:34:01;;;;;;;6.23;5.63;;;6.80;49.90;;;;;;5044536;28;20197;-50
2023/04/06 01:36:27;;;;;;;6.83;6.10;;;6.80;49.70;;;;;;5046704;28;20192;-49
2023/04/06 01:38:53;;;;;;;9.60;6.40;;;6.90;49.60;;;;;;5046370;28;20237;-49
2023/04/06 01:41:18;;;;;;;8.27;6.37;;;6.20;50.70;;;;;;5034918;28;20204;-49
2023/04/06 01:43:45;;;;;;;9.23;7.03;;;6.00;51.60;;;;;;5044516;28;20215;-48
2023/04/06 01:46:11;;;;;;;7.47;6.63;;;6.10;52.00;;;;;;5038855;28;20224;-48
2023/04/06 01:48:36;;;;;;;8.27;6.30;;;6.20;51.90;;;;;;5041473;28;20529;-50
2023/04/06 01:51:02;;;;;;;8.20;7.10;;;6.40;51.30;;;;;;5038615;28;20204;-49
2023/04/06 01:53:28;;;;;;;9.27;6.93;;;6.40;50.90;;;;;;5037005;28;20319;-50
2023/04/06 01:55:53;;;;;;;8.23;6.70;;;6.20;50.90;;;;;;5037784;28;20271;-53
2023/04/06 01:58:19;;;;;;;8.20;6.83;;;6.20;51.20;;;;;;5033979;28;20228;-49
2023/04/06 02:00:45;;;;;;;10.00;6.63;;;6.00;51.20;;;;;;5033347;28;20280;-49
2023/04/06 02:03:11;;;;;;;10.07;7.47;;;6.00;51.90;;;;;;5033078;28;20870;-51
2023/04/06 02:05:37;;;;;;;8.60;6.50;;;6.00;51.80;;;;;;5033593;28;20192;-49
2023/04/06 02:08:07;;;;;;;8.30;6.03;;;6.30;51.50;;;;;;5030007;28;20193;-49
2023/04/06 02:10:34;;;;;;;13.60;7.37;;;6.50;50.60;;;;;;5038537;28;20444;-48
2023/04/06 02:13:00;;;;;;;7.77;6.73;;;6.60;50.10;;;;;;5041380;28;20447;-48
2023/04/06 02:15:26;;;;;;;8.57;7.13;;;6.30;50.00;;;;;;5044058;28;20449;-49
2023/04/06 02:17:52;;;;;;;8.30;7.37;;;6.10;51.00;;;;;;5031522;28;20820;-48
2023/04/06 02:20:17;;;;;;;8.10;6.80;;;6.10;51.10;;;;;;5033231;28;20439;-49
2023/04/06 02:22:43;;;;;;;8.77;7.07;;;6.20;50.90;;;;;;5035632;28;20278;-48
2023/04/06 02:25:09;;;;;;;8.23;6.80;;;6.30;50.70;;;;;;5036587;28;20648;-49
2023/04/06 02:27:35;;;;;;;7.23;6.50;;;6.30;50.50;;;;;;5047596;28;20572;-48
2023/04/06 02:30:02;;;;;;;7.30;6.40;;;6.40;50.40;;;;;;5039828;28;20444;-49
2023/04/06 02:32:27;;;;;;;8.80;6.37;;;6.30;50.20;;;;;;5044648;28;20935;-49
2023/04/06 02:34:53;;;;;;;8.27;6.90;;;6.40;50.40;;;;;;5036852;28;20435;-49
2023/04/06 02:37:19;;;;;;;8.20;6.70;;;6.50;50.10;;;;;;5035544;28;20255;-49
2023/04/06 02:39:45;;;;;;;8.37;7.00;;;6.50;49.70;;;;;;5035791;28;20228;-48
2023/04/06 02:42:10;;;;;;;7.23;6.30;;;6.50;49.90;;;;;;5037774;28;20208;-49
2023/04/06 02:44:36;;;;;;;7.37;6.60;;;6.30;50.30;;;;;;5036562;28;20996;-48
2023/04/06 02:47:02;;;;;;;8.47;6.47;;;6.30;50.40;;;;;;5035649;28;20460;-49
2023/04/06 02:49:27;;;;;;;13.23;6.53;;;6.30;50.40;;;;;;5036899;28;20200;-48
2023/04/06 02:51:53;;;;;;;8.37;6.63;;;6.40;50.40;;;;;;5027532;28;20206;-48
2023/04/06 02:54:19;;;;;;;7.93;6.80;;;6.40;50.10;;;;;;5043904;28;20769;-49
2023/04/06 02:56:45;;;;;;;10.57;6.27;;;6.50;49.90;;;;;;5037225;28;20210;-48
2023/04/06 02:59:10;;;;;;;8.20;6.53;;;6.50;49.60;;;;;;5034278;28;20502;-52
2023/04/06 03:01:36;;;;;;;8.03;7.23;;;6.60;49.60;;;;;;5033882;28;20189;-49
2023/04/06 03:04:02;;;;;;;8.40;6.60;;;6.70;49.30;;;;;;5042870;28;20193;-49
2023/04/06 03:06:28;;;;;;;10.30;7.07;;;6.70;49.20;;;;;;5040829;28;20210;-50
2023/04/06 03:08:54;;;;;;;8.10;6.87;;;6.60;49.00;;;;;;5035544;28;20447;-49
2023/04/06 03:11:20;;;;;;;7.60;6.70;;;6.50;49.40;;;;;;5040347;28;20246;-48
2023/04/06 03:13:46;;;;;;;8.43;6.93;;;6.30;49.80;;;;;;5046282;28;20600;-49
2023/04/06 03:16:11;;;;;;;8.27;6.47;;;6.00;50.40;;;;;;5034292;28;20436;-48
2023/04/06 03:18:37;;;;;;;11.53;7.20;;;5.90;50.80;;;;;;5044591;28;20694;-48
2023/04/06 03:21:03;;;;;;;11.27;6.57;;;5.90;51.00;;;;;;5036925;28;20201;-48
2023/04/06 03:23:29;;;;;;;8.00;7.03;;;5.80;51.90;;;;;;5048672;28;20443;-48
2023/04/06 03:25:55;;;;;;;8.90;6.63;;;5.90;51.20;;;;;;5044601;28;21028;-49
2023/04/06 03:28:20;;;;;;;7.40;6.30;;;5.80;51.20;;;;;;5041868;28;20209;-53
2023/04/06 03:30:46;;;;;;;11.23;8.00;;;5.80;51.20;;;;;;5039592;28;20911;-49
2023/04/06 03:33:12;;;;;;;9.33;7.60;;;5.90;51.20;;;;;;5040926;28;20597;-49
2023/04/06 03:35:37;;;;;;;10.37;7.33;;;6.00;50.90;;;;;;5044653;28;20192;-49
2023/04/06 03:38:04;;;;;;;7.83;7.03;;;6.20;50.40;;;;;;5038256;28;20244;-48
2023/04/06 03:40:31;;;;;;;9.93;6.90;;;6.10;50.20;;;;;;5036224;28;20204;-48
2023/04/06 03:42:57;;;;;;;8.37;6.97;;;6.20;50.70;;;;;;5041780;28;20521;-48
2023/04/06 03:45:22;;;;;;;9.67;7.17;;;6.00;50.80;;;;;;5036940;28;20636;-48
2023/04/06 03:47:48;;;;;;;6.73;6.10;;;6.00;50.80;;;;;;5032406;28;20549;-49
2023/04/06 03:50:13;;;;;;;9.23;7.07;;;5.90;50.80;;;;;;5033556;28;20197;-49
2023/04/06 03:52:39;;;;;;;7.33;6.10;;;6.00;50.80;;;;;;5040367;28;20249;-48
2023/04/06 03:55:06;;;;;;;8.43;7.10;;;6.10;50.40;;;;;;5023496;28;20883;-49
2023/04/06 03:57:31;;;;;;;9.10;6.47;;;6.10;50.30;;;;;;5003582;28;20606;-47
2023/04/06 03:59:57;;;;;;;9.67;6.47;;;5.90;50.50;;;;;;5015777;28;20487;-48
2023/04/06 04:02:22;;;;;;;8.00;7.17;;;5.60;50.80;;;;;;5016236;28;20254;-48
2023/04/06 04:04:48;;;;;;;7.70;6.90;;;5.10;52.10;;;;;;5013082;28;20194;-49
2023/04/06 04:07:14;;;;;;;7.43;6.63;;;4.70;53.50;;;;;;5016888;28;20201;-49
2023/04/06 04:09:39;;;;;;;10.30;6.83;;;4.50;54.60;;;;;;5022147;28;20194;-48
2023/04/06 04:12:05;;;;;;;9.60;7.27;;;4.70;54.50;;;;;;5021073;28;20205;-51
2023/04/06 04:14:31;;;;;;;9.57;7.40;;;4.90;54.20;;;;;;5018942;28;20197;-48
2023/04/06 04:16:57;;;;;;;11.20;7.47;;;5.00;53.90;;;;;;5013576;28;20490;-48
2023/04/06 04:19:22;;;;;;;8.50;6.60;;;5.00;53.60;;;;;;5027463;28;20882;-48
2023/04/06 04:21:48;;;;;;;8.87;6.77;;;5.20;53.40;;;;;;5016872;28;20229;-49
2023/04/06 04:24:14;;;;;;;9.03;7.27;;;5.40;53.00;;;;;;5012235;28;20194;-48
2023/04/06 04:26:40;;;;;;;8.10;7.30;;;5.50;52.40;;;;;;5017590;28;20197;-48
2023/04/06 04:29:06;;;;;;;7.60;6.50;;;5.40;52.50;;;;;;5016691;28;20443;-49
2023/04/06 04:31:32;;;;;;;9.63;7.37;;;5.50;52.30;;;;;;5013799;28;20437;-48
2023/04/06 04:33:59;;;;;;;10.30;6.07;;;5.40;52.10;;;;;;5013841;28;20447;-51
2023/04/06 04:36:25;;;;;;;9.07;6.47;;;5.50;53.60;;;;;;5016283;28;20306;-47
2023/04/06 04:38:51;;;;;;;8.50;6.57;;;5.90;56.20;;;;;;5012764;28;20496;-48
2023/04/06 04:41:17;;;;;;;11.27;7.40;;;6.30;55.60;;;;;;5012291;28;20447;-49
2023/04/06 04:43:42;;;;;;;9.20;6.90;;;6.70;54.20;;;;;;5014017;28;20449;-48
2023/04/06 04:46:08;;;;;;;7.80;6.40;;;6.90;52.20;;;;;;5024165;28;20335;-49
2023/04/06 04:48:34;;;;;;;12.03;7.47;;;7.20;52.00;;;;;;5019748;28;20248;-49
2023/04/06 04:51:00;;;;;;;7.80;6.60;;;7.50;50.70;;;;;;5017303;28;20229;-51
2023/04/06 04:53:25;;;;;;;7.40;6.57;;;7.50;49.00;;;;;;5024142;28;20914;-49
2023/04/06 04:55:51;;;;;;;12.17;6.70;;;7.40;49.00;;;;;;5043059;28;20431;-50
2023/04/06 04:58:19;;;;;;;9.37;6.87;;;7.50;49.60;;;;;;5039087;28;20213;-49
2023/04/06 05:00:45;;;;;;;7.03;6.13;;;7.70;49.40;;;;;;5043849;28;20197;-51
2023/04/06 05:03:29;;;;;;;8.03;6.43;;;8.00;48.70;;;;;;5049250;28;20451;-50
2023/04/06 05:05:55;;;;;;;6.80;6.10;;;8.10;47.40;;;;;;5041911;28;20520;-49
2023/04/06 05:08:20;;;;;;;6.60;6.00;;;8.10;47.20;;;;;;5046740;28;20992;-49
2023/04/06 05:10:47;;;;;;;8.10;6.77;;;8.30;46.80;;;;;;5038176;28;20587;-50
2023/04/06 05:13:14;;;;;;;6.77;6.03;;;8.50;46.60;;;;;;5044973;28;20200;-51
2023/04/06 05:15:40;;;;;;;6.90;6.17;;;8.70;46.20;;;;;;5038374;28;20858;-49
2023/04/06 05:18:06;;;;;;;7.40;6.60;;;8.70;45.60;;;;;;5038448;28;22245;-52
2023/04/06 05:20:32;;;;;;;9.07;6.70;;;8.60;45.50;;;;;;5040706;28;20516;-53
2023/04/06 05:22:58;;;;;;;7.87;6.30;;;8.60;45.30;;;;;;5038557;28;20451;-50
2023/04/06 05:25:24;;;;;;;8.93;8.00;;;8.60;45.50;;;;;;5043804;28;20243;-52
2023/04/06 05:27:56;;;;;;;8.50;6.67;;;8.80;45.50;;;;;;5048644;28;20549;-55
2023/04/06 05:30:21;;;;;;;7.93;7.13;;;8.70;44.50;;;;;;5041719;28;20487;-51
2023/04/06 05:32:47;;;;;;;8.50;7.17;;;8.10;44.90;;;;;;5038751;28;20479;-52
2023/04/06 05:35:13;;;;;;;12.40;6.80;;;7.60;46.00;;;;;;5040196;28;20258;-52
2023/04/06 05:37:39;;;;;;;8.30;7.00;;;7.40;46.90;;;;;;5042939;28;20450;-53
2023/04/06 05:40:08;;;;;;;9.47;7.53;;;7.10;47.60;;;;;;5044762;28;20715;-52
2023/04/06 05:42:42;;;;;;;12.40;7.80;;;6.80;48.20;;;;;;5040616;28;20454;-52
2023/04/06 05:45:10;;;;;;;12.80;8.27;;;6.70;48.60;;;;;;5050192;28;21030;-53
2023/04/06 05:47:36;;;;;;;8.47;7.53;;;6.50;48.90;;;;;;5050998;28;20431;-53
2023/04/06 05:50:02;;;;;;;9.17;7.07;;;6.40;49.40;;;;;;5035335;28;20439;-53
2023/04/06 05:52:27;;;;;;;8.13;7.33;;;6.30;49.60;;;;;;5031277;28;20221;-52
2023/04/06 05:54:54;;;;;;;10.63;7.27;;;6.10;50.10;;;;;;5030916;28;20591;-51
2023/04/06 05:57:19;;;;;;;9.20;7.00;;;6.20;50.20;;;;;;5031163;28;20197;-53
2023/04/06 05:59:45;;;;;;;9.00;8.10;;;6.10;50.20;;;;;;5030288;28;20570;-52
2023/04/06 06:02:11;;;;;;;9.93;6.63;;;6.20;50.30;;;;;;5030825;28;20206;-52
2023/04/06 06:04:36;;;;;;;8.50;7.20;;;6.20;50.50;;;;;;5030910;28;20668;-50
2023/04/06 06:07:02;;;;;;;8.70;7.27;;;6.30;50.60;;;;;;5029421;28;20193;-48
2023/04/06 06:09:28;;;;;;;8.30;7.23;;;6.30;50.40;;;;;;5030738;28;20190;-52
2023/04/06 06:11:53;;;;;;;10.40;7.47;;;6.20;50.40;;;;;;5030274;28;20802;-52
2023/04/06 06:14:19;;;;;;;8.57;7.70;;;6.20;50.70;;;;;;5030802;28;20219;-52
2023/04/06 06:16:45;;;;;;;10.33;7.70;;;6.10;50.80;;;;;;5031086;28;20284;-51
2023/04/06 06:19:11;;;;;;;11.60;7.60;;;5.90;51.30;;;;;;5030611;28;20602;-52
2023/04/06 06:21:37;;;;;;;12.03;9.10;;;5.90;51.50;;;;;;5030359;28;20943;-51
2023/04/06 06:24:02;;;;;;;9.10;8.10;;;6.20;51.60;;;;;;5030736;28;20195;-52
2023/04/06 06:26:28;;;;;;;10.50;7.23;;;6.20;51.00;;;;;;5030700;28;20276;-53
2023/04/06 06:28:54;;;;;;;8.70;7.80;;;6.30;50.90;;;;;;5030754;28;20197;-53
2023/04/06 06:31:22;;;;;;;10.00;8.30;;;6.30;50.90;;;;;;5030312;28;20615;-53
2023/04/06 06:33:50;;;;;;;7.93;7.13;;;6.50;50.70;;;;;;5028879;28;20463;-53
2023/04/06 06:36:17;;;;;;;10.40;8.20;;;6.60;50.60;;;;;;5030534;28;20432;-52
2023/04/06 06:38:42;;;;;;;8.53;7.70;;;6.50;50.00;;;;;;5030582;28;20653;-53
2023/04/06 06:41:08;;;;;;;8.50;7.13;;;6.50;50.00;;;;;;5030399;28;20507;-52
2023/04/06 06:43:34;;;;;;;9.20;7.73;;;6.30;50.40;;;;;;5034451;28;20216;-52
2023/04/06 06:45:59;;;;;;;11.30;8.73;;;6.30;50.50;;;;;;5034519;28;20208;-52
2023/04/06 06:48:25;;;;;;;9.27;7.57;;;6.40;50.40;;;;;;5034382;28;20211;-53
2023/04/06 06:50:51;;;;;;;10.57;8.70;;;6.50;50.20;;;;;;5034176;28;20246;-53
2023/04/06 06:53:16;;;;;;;11.93;8.40;;;6.70;50.10;;;;;;5034324;28;20229;-53
2023/04/06 06:55:44;;;;;;;11.87;8.77;;;6.80;49.80;;;;;;5034456;28;20208;-51
2023/04/06 06:58:09;;;;;;;10.73;9.10;;;6.90;50.00;;;;;;5034332;28;20701;-53
2023/04/06 07:00:35;;;;;;;9.53;8.50;;;7.20;49.70;;;;;;5032212;28;20482;-52
2023/04/06 07:03:01;;;;;;;12.50;8.30;;;7.30;49.40;;;;;;5034299;28;20301;-52
2023/04/06 07:05:26;;;;;;;9.17;7.73;;;7.30;48.60;;;;;;5034391;28;20956;-53
2023/04/06 07:07:52;;;;;;;9.23;8.33;;;7.50;48.80;;;;;;5034299;28;20702;-54
2023/04/06 07:10:18;;;;;;;9.67;8.60;;;8.00;48.20;;;;;;5034302;28;20205;-52
2023/04/06 07:12:44;;;;;;;9.50;8.47;;;8.10;47.20;;;;;;5034014;28;20300;-51
2023/04/06 07:15:10;;;;;;;12.93;8.73;;;8.00;47.30;;;;;;5034431;28;20189;-51
2023/04/06 07:17:35;;;;;;;13.13;8.67;;;8.30;47.70;;;;;;5016432;28;20640;-53
2023/04/06 07:20:01;;;;;;;9.17;8.23;;;8.30;47.50;;;;;;5033662;28;20258;-52
2023/04/06 07:22:27;;;;;;;12.07;9.00;;;8.50;47.10;;;;;;5033946;28;20343;-53
2023/04/06 07:24:52;;;;;;;12.60;8.90;;;8.70;46.50;;;;;;5034004;28;20190;-49
2023/04/06 07:27:18;;;;;;;9.77;8.50;;;8.90;46.30;;;;;;5032227;28;20731;-52
2023/04/06 07:29:44;;;;;;;9.80;8.27;;;9.20;45.90;;;;;;5033581;28;20185;-52
2023/04/06 07:32:10;;;;;;;10.80;9.70;;;9.60;45.20;;;;;;5033805;28;20926;-52
2023/04/06 07:34:36;;;;;;;9.77;8.77;;;9.40;44.60;;;;;;5033752;28;20197;-53
2023/04/06 07:37:02;;;;;;;10.20;9.10;;;9.60;45.00;;;;;;5033749;28;20418;-52
2023/04/06 07:39:28;;;;;;;10.10;9.03;;;10.00;43.50;;;;;;5033279;28;20264;-52
2023/04/06 07:41:54;;;;;;;12.27;9.87;;;9.90;43.60;;;;;;5033559;28;20472;-50
2023/04/06 07:44:20;;;;;;;10.30;9.20;;;9.70;44.00;;;;;;5033374;28;20193;-53
2023/04/06 07:46:45;;;;;;;12.67;8.97;;;10.00;43.60;;;;;;5033439;28;20236;-52
2023/04/06 07:49:12;;;;;;;12.07;9.87;;;10.40;42.60;;;;;;5033249;28;20197;-53
2023/04/06 07:51:39;;;;;;;8.60;7.77;;;10.50;42.90;;;;;;5032874;28;20217;-52
2023/04/06 07:54:05;;;;;;;8.50;7.70;;;11.00;42.50;;;;;;5031455;28;20487;-53
2023/04/06 07:56:30;;;;;;;9.63;8.63;;;11.30;41.60;;;;;;5033218;28;20904;-51
2023/04/06 07:58:57;;;;;;;10.10;9.10;;;11.70;41.40;;;;;;5033251;28;20487;-49
2023/04/06 08:01:24;;;;;;;10.23;9.23;;;11.90;39.70;;;;;;5032675;28;20296;-53
2023/04/06 08:03:50;;;;;;;11.53;10.30;;;11.70;39.10;;;;;;5033084;28;20429;-51
2023/04/06 08:06:16;;;;;;;9.53;8.63;;;12.00;39.60;;;;;;5033169;28;20436;-52
2023/04/06 08:08:42;;;;;;;12.40;9.43;;;12.30;39.70;;;;;;5033134;28;20769;-51
2023/04/06 08:11:07;;;;;;;10.03;9.00;;;12.40;38.50;;;;;;5032549;28;20189;-52
2023/04/06 08:13:34;;;;;;;10.90;8.90;;;12.60;38.50;;;;;;5032982;28;20429;-50
2023/04/06 08:16:00;;;;;;;9.70;8.80;;;12.80;38.20;;;;;;5032856;28;20193;-52
2023/04/06 08:18:25;;;;;;;10.60;9.30;;;13.20;37.80;;;;;;5032755;28;20500;-50
2023/04/06 08:20:51;;;;;;;11.87;9.43;;;13.30;36.00;;;;;;5030874;28;20838;-53
2023/04/06 08:23:17;;;;;;;10.30;9.20;;;13.70;36.60;;;;;;5032962;28;20557;-50
2023/04/06 08:25:43;;;;;;;9.90;8.90;;;13.80;35.20;;;;;;5032656;28;20261;-52
2023/04/06 08:28:09;;;;;;;10.33;8.50;;;14.00;35.00;;;;;;5032696;28;20189;-50
2023/04/06 08:30:35;;;;;;;11.10;9.07;;;14.30;34.60;;;;;;5032336;28;20466;-53
2023/04/06 08:33:01;;;;;;;11.63;8.60;;;14.50;34.20;;;;;;5032744;28;20659;-52
2023/04/06 08:35:27;;;;;;;12.60;9.90;;;14.60;33.30;;;;;;5032391;28;20431;-50
2023/04/06 08:37:53;;;;;;;13.63;9.37;;;14.80;32.60;;;;;;5032469;28;20197;-52
2023/04/06 08:40:18;;;;;;;12.97;10.27;;;14.30;33.20;;;;;;5031906;28;20516;-49
2023/04/06 08:42:54;;;;;;;14.20;10.20;;;14.50;34.00;;;;;;5032447;28;20665;-49
2023/04/06 08:45:21;;;;;;;10.50;9.00;;;14.80;33.60;;;;;;5032312;28;20196;-52
2023/04/06 08:47:51;;;;;;;11.33;8.97;;;15.00;32.80;;;;;;5030818;28;20485;-52
2023/04/06 08:50:18;;;;;;;12.80;10.00;;;15.30;32.70;;;;;;5031789;28;20993;-52
2023/04/06 08:52:46;;;;;;;13.43;9.83;;;15.50;32.70;;;;;;5032165;28;20436;-49
2023/04/06 08:55:12;;;;;;;11.53;9.10;;;15.70;32.00;;;;;;5032219;28;20459;-53
2023/04/06 08:57:38;;;;;;;10.33;9.10;;;15.70;31.60;;;;;;5032023;28;20465;-53
2023/04/06 09:00:06;;;;;;;11.47;10.30;;;15.80;31.20;;;;;;5031602;28;20672;-50
2023/04/06 09:02:32;;;;;;;11.73;9.90;;;15.80;31.00;;;;;;5031174;28;20440;-53
2023/04/06 09:04:58;;;;;;;11.00;9.77;;;16.00;31.20;;;;;;5031292;28;20442;-53
2023/04/06 09:07:24;;;;;;;13.33;9.90;;;16.00;30.10;;;;;;5032175;28;20424;-53
2023/04/06 09:09:51;;;;;;;11.30;9.60;;;16.00;30.00;;;;;;5031453;28;20506;-53
2023/04/06 09:12:30;;;;;;;10.73;9.57;;;16.10;29.80;;;;;;5031907;28;20189;-52
2023/04/06 09:14:57;;;;;;;10.83;9.53;;;16.40;30.40;;;;;;5030345;28;20423;-52
2023/04/06 09:17:28;;;;;;;12.10;10.00;;;16.60;29.60;;;;;;5031903;28;20439;-52
2023/04/06 09:19:54;;;;;;;10.10;9.13;;;16.70;29.40;;;;;;5031762;28;20626;-53
2023/04/06 09:22:20;;;;;;;12.40;9.00;;;16.90;29.50;;;;;;5031810;28;20435;-52
2023/04/06 09:24:51;;;;;;;11.30;9.90;;;17.20;29.60;;;;;;5031683;28;20424;-54
2023/04/06 09:27:18;;;;;;;11.93;10.10;;;17.40;28.00;;;;;;5031613;28;20459;-53
2023/04/06 09:29:44;;;;;;;12.37;10.17;;;17.70;27.50;;;;;;5031313;28;20428;-49
2023/04/06 09:32:11;;;;;;;11.53;9.67;;;17.70;27.60;;;;;;5031448;28;20428;-53
2023/04/06 09:34:40;;;;;;;10.67;9.00;;;17.70;27.50;;;;;;5031307;28;20444;-49
2023/04/06 09:37:16;;;;;;;10.70;9.60;;;17.70;27.10;;;;;;5031264;28;20432;-53
2023/04/06 09:39:41;;;;;;;12.93;9.80;;;17.90;27.20;;;;;;5030864;28;20991;-53
2023/04/06 09:42:07;;;;;;;12.60;10.00;;;17.90;27.60;;;;;;5029635;28;20428;-52
2023/04/06 09:44:33;;;;;;;10.53;9.43;;;18.00;27.40;;;;;;5031319;28;20205;-50
2023/04/06 09:46:59;;;;;;;12.90;10.07;;;18.30;27.30;;;;;;5031209;28;20424;-50
2023/04/06 09:49:27;;;;;;;12.53;10.13;;;18.40;26.60;;;;;;5030708;28;20193;-53
2023/04/06 09:51:59;;;;;;;10.50;9.53;;;18.10;26.30;;;;;;5031158;28;20205;-53
2023/04/06 09:54:29;;;;;;;11.00;9.57;;;18.10;26.40;;;;;;5030818;28;20858;-51
2023/04/06 09:57:10;;;;;;;11.00;9.80;;;17.90;26.60;;;;;;5031133;28;20428;-51
2023/04/06 10:00:11;;;;;;;12.80;9.60;;;18.30;26.80;;;;;;5030659;28;20487;-50
2023/04/06 10:02:41;;;;;;;9.80;8.80;;;18.60;27.70;;;;;;5030410;28;20450;-53
2023/04/06 10:05:17;;;;;;;10.10;9.07;;;18.90;27.40;;;;;;5030970;28;20427;-50
2023/04/06 10:07:45;;;;;;;13.37;9.47;;;19.20;27.10;;;;;;5030822;28;20420;-51
2023/04/06 10:10:12;;;;;;;11.03;9.87;;;19.40;27.30;;;;;;5029153;28;20436;-49
2023/04/06 10:12:39;;;;;;;10.90;9.03;;;19.60;25.80;;;;;;5030894;28;20907;-50
2023/04/06 10:15:05;;;;;;;9.53;8.60;;;19.80;25.80;;;;;;5030777;28;20432;-49
2023/04/06 10:17:31;;;;;;;11.50;9.03;;;20.00;24.60;;;;;;5030006;28;20486;-53
2023/04/06 10:20:08;;;;;;;9.57;8.67;;;20.10;24.30;;;;;;5030250;28;20488;-50
2023/04/06 10:22:53;;;;;;;10.10;9.10;;;20.10;24.00;;;;;;5030870;28;20551;-50
2023/04/06 10:25:32;;;;;;;8.40;7.60;;;20.30;24.10;;;;;;5030569;28;20517;-50
2023/04/06 10:28:04;;;;;;;7.87;7.17;;;20.60;24.10;;;;;;5030438;28;20509;-50
2023/04/06 10:30:30;;;;;;;9.27;7.83;;;20.80;23.80;;;;;;5030154;28;21007;-53
2023/04/06 10:32:56;;;;;;;9.07;8.17;;;20.80;23.20;;;;;;5017215;28;20459;-51
2023/04/06 10:35:22;;;;;;;12.17;8.90;;;21.00;23.10;;;;;;5028834;28;20486;-49
2023/04/06 10:37:51;;;;;;;9.63;8.37;;;21.10;23.60;;;;;;5030558;28;20342;-50
2023/04/06 10:40:24;;;;;;;9.67;8.00;;;21.20;22.70;;;;;;5030286;28;20636;-50
2023/04/06 10:42:51;;;;;;;8.90;8.00;;;21.10;23.20;;;;;;5030458;28;20430;-51
2023/04/06 10:45:31;;;;;;;7.83;7.13;;;21.10;24.10;;;;;;5030018;28;20428;-50
2023/04/06 10:47:57;;;;;;;9.30;8.40;;;21.10;23.10;;;;;;5030340;28;20485;-52
2023/04/06 10:50:23;;;;;;;9.07;8.17;;;21.20;22.70;;;;;;5029866;28;20428;-51
2023/04/06 10:53:02;;;;;;;9.30;7.60;;;21.30;22.30;;;;;;5030187;28;20501;-50
2023/04/06 10:55:29;;;;;;;9.40;7.97;;;21.30;22.40;;;;;;5030199;28;20503;-49
2023/04/06 10:57:55;;;;;;;9.67;7.60;;;21.30;24.20;;;;;;5030422;28;20439;-51
2023/04/06 11:00:21;;;;;;;9.20;8.07;;;21.50;24.50;;;;;;5029875;28;20529;-51
2023/04/06 11:02:47;;;;;;;8.53;7.53;;;21.70;23.30;;;;;;5028759;28;20911;-50
2023/04/06 11:05:13;;;;;;;9.50;8.50;;;21.80;23.10;;;;;;5030258;28;20229;-50
2023/04/06 11:07:40;;;;;;;8.63;7.87;;;21.80;23.40;;;;;;5030333;28;20502;-50
2023/04/06 11:10:06;;;;;;;8.03;7.30;;;22.00;23.00;;;;;;5029865;28;20197;-52
2023/04/06 11:12:32;;;;;;;9.10;7.10;;;22.10;23.00;;;;;;5030493;28;20520;-51
2023/04/06 11:15:06;;;;;;;7.37;6.77;;;22.20;23.30;;;;;;5030464;28;20563;-52
2023/04/06 11:17:35;;;;;;;7.60;6.80;;;22.20;22.20;;;;;;5030511;28;20201;-51
2023/04/06 11:20:02;;;;;;;9.37;8.40;;;22.20;20.80;;;;;;5029891;28;20840;-52
2023/04/06 11:22:28;;;;;;;8.30;7.10;;;22.10;21.20;;;;;;5030516;28;20793;-50
2023/04/06 11:25:05;;;;;;;8.33;7.60;;;22.00;21.50;;;;;;5030143;28;20420;-52
2023/04/06 11:27:32;;;;;;;8.07;7.27;;;22.20;22.20;;;;;;5030484;28;20447;-50
2023/04/06 11:29:59;;;;;;;7.33;6.70;;;22.10;21.50;;;;;;5031721;28;20430;-50
2023/04/06 11:32:24;;;;;;;8.13;7.33;;;22.00;21.20;;;;;;5033725;28;20420;-52
2023/04/06 11:34:50;;;;;;;5.90;5.30;;;22.10;22.50;;;;;;5033714;28;20767;-50
2023/04/06 11:37:16;;;;;;;9.17;6.57;;;22.30;21.40;;;;;;5033659;28;20189;-52
2023/04/06 11:39:53;;;;;;;7.20;6.60;;;22.40;21.00;;;;;;5033066;28;20256;-52
2023/04/06 11:42:28;;;;;;;7.07;5.30;;;22.30;20.00;;;;;;5033511;28;20828;-49
2023/04/06 11:44:58;;;;;;;6.90;6.20;;;22.30;20.70;;;;;;5033577;28;20427;-51
2023/04/06 11:47:35;;;;;;;6.30;5.70;;;22.50;20.10;;;;;;5033192;28;20805;-52
2023/04/06 11:50:13;;;;;;;5.90;5.30;;;22.60;20.30;;;;;;5033082;28;20447;-51
2023/04/06 11:52:42;;;;;;;6.80;6.20;;;22.70;20.40;;;;;;5033672;28;20475;-53
2023/04/06 11:55:16;;;;;;;7.33;6.27;;;22.80;19.50;;;;;;5033343;28;20439;-53
2023/04/06 11:57:42;;;;;;;7.13;6.43;;;22.50;19.90;;;;;;5032249;28;20566;-50
2023/04/06 12:00:09;;;;;;;6.07;5.57;;;22.50;20.00;;;;;;5032671;28;20476;-51
2023/04/06 12:02:36;;;;;;;7.40;5.43;;;22.80;20.20;;;;;;5033215;28;20432;-50
2023/04/06 12:05:03;;;;;;;6.00;5.50;;;22.90;21.00;;;;;;5033200;28;20440;-50
2023/04/06 12:07:30;;;;;;;5.40;4.90;;;23.20;20.90;;;;;;5033047;28;20427;-50
2023/04/06 12:09:56;;;;;;;5.93;5.37;;;23.40;20.60;;;;;;5032716;28;20844;-51
2023/04/06 12:12:21;;;;;;;5.93;5.33;;;23.40;20.20;;;;;;5033104;28;20471;-53
2023/04/06 12:14:47;;;;;;;7.20;6.40;;;23.30;19.60;;;;;;5032960;28;20232;-51
2023/04/06 12:17:13;;;;;;;8.67;6.27;;;23.40;19.90;;;;;;5033015;28;20247;-51
2023/04/06 12:19:38;;;;;;;6.17;5.57;;;23.40;19.90;;;;;;5014906;28;20231;-52
2023/04/06 12:22:04;;;;;;;7.07;6.40;;;23.50;20.40;;;;;;5033075;28;20191;-53
2023/04/06 12:24:29;;;;;;;5.50;5.00;;;23.60;19.40;;;;;;5031464;28;20197;-50
2023/04/06 12:26:55;;;;;;;6.03;5.53;;;23.50;20.90;;;;;;5032735;28;20251;-52
2023/04/06 12:29:21;;;;;;;6.03;5.47;;;23.60;20.40;;;;;;5032353;28;20192;-50
2023/04/06 12:31:46;;;;;;;7.40;6.20;;;23.60;20.10;;;;;;5032761;28;20193;-50
2023/04/06 12:34:12;;;;;;;6.23;5.67;;;23.30;19.20;;;;;;5032457;28;20190;-51
2023/04/06 12:36:38;;;;;;;6.33;5.73;;;23.20;19.20;;;;;;5032511;28;20189;-52
2023/04/06 12:39:04;;;;;;;6.77;5.80;;;23.10;19.10;;;;;;5031348;28;20325;-52
2023/04/06 12:41:30;;;;;;;6.60;6.00;;;23.00;19.70;;;;;;5032092;28;20522;-50
2023/04/06 12:43:55;;;;;;;6.20;5.70;;;23.00;20.00;;;;;;5032250;28;20209;-50
2023/04/06 12:46:23;;;;;;;5.50;5.00;;;22.90;19.90;;;;;;5032492;28;20604;-51
2023/04/06 12:48:49;;;;;;;6.20;5.60;;;23.00;21.20;;;;;;5032254;28;20592;-52